createdAt,value
2023-02-04T00:01:43.353Z,35.30
2023-02-04T00:04:09.787Z,33.78
2023-02-04T00:06:36.088Z,25.67
2023-02-04T00:09:02.440Z,25.52
2023-02-04T00:11:28.772Z,24.88
2023-02-04T00:13:55.153Z,26.17
2023-02-04T00:16:21.589Z,25.48
2023-02-04T00:18:47.956Z,23.45
2023-02-04T00:21:14.269Z,21.38
2023-02-04T00:23:41.122Z,14.88
2023-02-04T00:26:07.666Z,19.80
2023-02-04T00:28:34.034Z,22.73
2023-02-04T00:31:00.354Z,13.13
2023-02-04T00:33:26.742Z,20.95
2023-02-04T00:35:53.054Z,24.58
2023-02-04T00:38:20.730Z,20.42
2023-02-04T00:40:47.012Z,20.02
2023-02-04T00:43:13.340Z,29.25
2023-02-04T00:45:39.801Z,20.88
2023-02-04T00:48:06.144Z,23.70
2023-02-04T00:50:34.832Z,19.65
2023-02-04T00:53:01.950Z,24.40
2023-02-04T00:55:29.499Z,27.75
2023-02-04T00:57:55.840Z,26.17
2023-02-04T01:00:22.339Z,24.88
2023-02-04T01:02:48.665Z,25.55
2023-02-04T01:05:15.093Z,24.23
2023-02-04T01:07:41.473Z,29.52
2023-02-04T01:10:07.899Z,49.63
2023-02-04T01:12:34.385Z,32.55
2023-02-04T01:15:00.893Z,25.63
2023-02-04T01:17:27.263Z,32.33
2023-02-04T01:19:53.837Z,34.70
2023-02-04T01:22:20.412Z,31.00
2023-02-04T01:24:46.892Z,33.13
2023-02-04T01:27:31.828Z,30.77
2023-02-04T01:29:58.133Z,27.83
2023-02-04T01:32:24.454Z,29.63
2023-02-04T01:34:52.136Z,25.88
2023-02-04T01:37:18.764Z,29.00
2023-02-04T01:39:45.077Z,34.35
2023-02-04T01:42:13.374Z,31.02
2023-02-04T01:44:39.941Z,26.05
2023-02-04T01:47:06.402Z,18.10
2023-02-04T01:49:32.999Z,31.10
2023-02-04T01:51:59.612Z,25.73
2023-02-04T01:54:26.699Z,27.38
2023-02-04T01:56:55.089Z,28.73
2023-02-04T01:59:22.139Z,22.27
2023-02-04T02:01:51.116Z,27.38
2023-02-04T02:04:22.833Z,22.55
2023-02-04T02:06:58.736Z,26.23
2023-02-04T02:09:27.105Z,26.08
2023-02-04T02:11:53.596Z,20.35
2023-02-04T02:14:20.344Z,21.70
2023-02-04T02:16:46.901Z,36.97
2023-02-04T02:19:20.000Z,26.48
2023-02-04T02:21:54.944Z,27.30
2023-02-04T02:24:34.481Z,20.55
2023-02-04T02:27:08.289Z,19.70
2023-02-04T02:29:36.357Z,30.08
2023-02-04T02:32:02.698Z,24.42
2023-02-04T02:34:30.181Z,27.33
2023-02-04T02:36:58.679Z,31.63
2023-02-04T02:39:26.024Z,34.53
2023-02-04T02:41:52.516Z,27.38
2023-02-04T02:44:19.232Z,36.80
2023-02-04T02:46:45.622Z,27.27
2023-02-04T02:49:19.759Z,30.60
2023-02-04T02:51:48.470Z,29.85
2023-02-04T02:54:27.204Z,29.48
2023-02-04T02:56:56.810Z,38.33
2023-02-04T02:59:24.683Z,28.67
2023-02-04T03:01:57.343Z,25.98
2023-02-04T03:04:28.477Z,26.65
2023-02-04T03:06:56.038Z,18.60
2023-02-04T03:09:25.147Z,25.02
2023-02-04T03:11:52.124Z,26.13
2023-02-04T03:14:19.208Z,32.00
2023-02-04T03:16:47.488Z,23.30
2023-02-04T03:19:14.086Z,28.52
2023-02-04T03:21:41.415Z,33.85
2023-02-04T03:24:08.072Z,33.78
2023-02-04T03:26:36.588Z,35.40
2023-02-04T03:29:03.019Z,29.15
2023-02-04T03:31:29.432Z,20.48
2023-02-04T03:33:55.789Z,24.15
2023-02-04T03:36:22.322Z,33.05
2023-02-04T03:38:48.642Z,26.77
2023-02-04T03:41:14.924Z,28.25
2023-02-04T03:43:41.255Z,25.25
2023-02-04T03:46:07.645Z,23.33
2023-02-04T03:48:33.977Z,22.80
2023-02-04T03:51:00.300Z,31.42
2023-02-04T03:53:26.637Z,32.00
2023-02-04T03:55:52.962Z,31.50
2023-02-04T03:58:19.564Z,27.73
2023-02-04T04:00:45.856Z,30.13
2023-02-04T04:03:12.150Z,28.05
2023-02-04T04:05:38.486Z,33.95
2023-02-04T04:08:04.955Z,31.90
2023-02-04T04:10:31.704Z,31.48
2023-02-04T04:12:58.189Z,28.85
2023-02-04T04:15:24.741Z,26.60
2023-02-04T04:17:51.048Z,32.50
2023-02-04T04:20:17.534Z,33.45
2023-02-04T04:22:45.686Z,24.17
2023-02-04T04:25:12.031Z,28.77
2023-02-04T04:27:38.375Z,36.30
2023-02-04T04:30:05.150Z,31.30
2023-02-04T04:32:31.565Z,35.25
2023-02-04T04:34:57.896Z,28.00
2023-02-04T04:37:24.199Z,33.35
2023-02-04T04:39:50.506Z,36.78
2023-02-04T04:42:16.818Z,38.78
2023-02-04T04:44:43.136Z,35.92
2023-02-04T04:47:09.451Z,36.22
2023-02-04T04:49:35.825Z,36.88
2023-02-04T04:52:02.187Z,33.13
2023-02-04T04:54:28.500Z,32.88
2023-02-04T04:56:54.920Z,33.53
2023-02-04T04:59:21.224Z,44.78
2023-02-04T05:01:47.626Z,34.50
2023-02-04T05:04:13.920Z,47.72
2023-02-04T05:06:40.224Z,54.47
2023-02-04T05:09:06.585Z,52.30
2023-02-04T05:11:33.359Z,34.30
2023-02-04T05:13:59.805Z,39.17
2023-02-04T05:16:26.184Z,37.03
2023-02-04T05:18:52.635Z,40.95
2023-02-04T05:21:18.991Z,46.35
2023-02-04T05:23:45.327Z,32.92
2023-02-04T05:26:15.358Z,34.45
2023-02-04T05:28:48.456Z,32.83
2023-02-04T05:31:14.893Z,38.17
2023-02-04T05:33:41.269Z,36.55
2023-02-04T05:36:07.558Z,35.30
2023-02-04T05:38:33.880Z,40.47
2023-02-04T05:41:00.186Z,35.53
2023-02-04T05:43:26.478Z,31.90
2023-02-04T05:45:52.871Z,24.10
2023-02-04T05:48:19.277Z,28.88
2023-02-04T05:50:45.568Z,37.80
2023-02-04T05:53:11.980Z,37.03
2023-02-04T05:55:39.042Z,33.17
2023-02-04T05:58:05.407Z,33.78
2023-02-04T06:00:32.027Z,47.13
2023-02-04T06:02:58.506Z,38.45
2023-02-04T06:05:24.894Z,37.80
2023-02-04T06:07:51.336Z,37.28
2023-02-04T06:10:18.101Z,30.00
2023-02-04T06:12:44.418Z,26.98
2023-02-04T06:15:11.730Z,27.48
2023-02-04T06:17:38.090Z,36.65
2023-02-04T06:20:05.667Z,32.75
2023-02-04T06:22:32.007Z,67.57
2023-02-04T06:24:58.695Z,85.32
2023-02-04T06:27:25.052Z,54.67
2023-02-04T06:29:53.463Z,51.28
2023-02-04T06:32:21.073Z,45.70
2023-02-04T06:34:47.472Z,36.80
2023-02-04T06:37:15.702Z,35.97
2023-02-04T06:39:42.019Z,43.20
2023-02-04T06:42:08.725Z,27.13
2023-02-04T06:44:35.049Z,36.53
2023-02-04T06:47:01.379Z,23.85
2023-02-04T06:49:27.895Z,28.30
2023-02-04T06:51:55.140Z,27.95
2023-02-04T06:54:21.587Z,28.10
2023-02-04T06:56:48.079Z,30.85
2023-02-04T06:59:14.356Z,28.85
2023-02-04T07:01:40.705Z,35.40
2023-02-04T07:04:07.048Z,35.03
2023-02-04T07:06:33.348Z,45.05
2023-02-04T07:08:59.692Z,38.55
2023-02-04T07:11:26.050Z,36.45
2023-02-04T07:13:52.321Z,37.92
2023-02-04T07:16:18.671Z,33.80
2023-02-04T07:18:45.093Z,36.25
2023-02-04T07:21:11.388Z,27.40
2023-02-04T07:23:37.712Z,29.40
2023-02-04T07:26:04.055Z,42.85
2023-02-04T07:28:31.406Z,39.65
2023-02-04T07:30:57.814Z,29.88
2023-02-04T07:33:24.158Z,29.35
2023-02-04T07:35:50.489Z,35.00
2023-02-04T07:38:16.851Z,38.47
2023-02-04T07:40:43.154Z,38.65
2023-02-04T07:43:09.559Z,37.83
2023-02-04T07:45:35.841Z,30.27
2023-02-04T07:48:02.135Z,31.60
2023-02-04T07:50:28.455Z,36.97
2023-02-04T07:52:54.839Z,39.30
2023-02-04T07:55:21.204Z,40.13
2023-02-04T07:57:47.509Z,35.90
2023-02-04T08:00:14.517Z,31.50
2023-02-04T08:02:41.694Z,36.95
2023-02-04T08:05:09.856Z,45.47
2023-02-04T08:07:36.203Z,29.60
2023-02-04T08:10:07.040Z,38.80
2023-02-04T08:12:33.439Z,47.78
2023-02-04T08:15:01.181Z,59.05
2023-02-04T08:17:27.905Z,51.50
2023-02-04T08:19:54.279Z,36.60
2023-02-04T08:22:20.680Z,51.38
2023-02-04T08:24:46.998Z,35.55
2023-02-04T08:27:13.770Z,45.40
2023-02-04T08:29:40.154Z,35.00
2023-02-04T08:32:06.529Z,45.97
2023-02-04T08:34:32.886Z,38.58
2023-02-04T08:36:59.173Z,31.15
2023-02-04T08:39:25.470Z,44.60
2023-02-04T08:41:51.756Z,30.92
2023-02-04T08:44:18.117Z,33.97
2023-02-04T08:46:44.542Z,37.90
2023-02-04T08:49:10.909Z,37.30
2023-02-04T08:51:37.236Z,40.42
2023-02-04T08:54:03.720Z,28.30
2023-02-04T08:56:31.067Z,39.70
2023-02-04T08:58:57.379Z,39.97
2023-02-04T09:01:23.787Z,48.78
2023-02-04T09:03:50.110Z,48.85
2023-02-04T09:06:16.394Z,44.28
2023-02-04T09:08:42.733Z,48.97
2023-02-04T09:11:11.157Z,36.13
2023-02-04T09:13:38.191Z,40.95
2023-02-04T09:16:04.960Z,35.40
2023-02-04T09:18:32.526Z,39.65
2023-02-04T09:20:59.200Z,34.03
2023-02-04T09:23:25.614Z,36.88
2023-02-04T09:25:51.972Z,39.30
2023-02-04T09:28:18.373Z,31.42
2023-02-04T09:30:46.510Z,38.70
2023-02-04T09:33:14.975Z,43.42
2023-02-04T09:35:41.253Z,35.60
2023-02-04T09:38:07.583Z,32.05
2023-02-04T09:40:37.338Z,37.47
2023-02-04T09:43:05.491Z,38.78
2023-02-04T09:45:34.861Z,27.70
2023-02-04T09:48:04.265Z,31.88
2023-02-04T09:50:32.677Z,34.00
2023-02-04T09:53:03.955Z,37.15
2023-02-04T09:55:34.227Z,33.08
2023-02-04T09:58:00.651Z,40.13
2023-02-04T10:00:29.471Z,40.85
2023-02-04T10:03:00.004Z,39.22
2023-02-04T10:05:31.941Z,37.83
2023-02-04T10:07:58.943Z,31.48
2023-02-04T10:10:27.372Z,30.58
2023-02-04T10:12:58.994Z,35.78
2023-02-04T10:15:26.143Z,32.17
2023-02-04T10:17:56.584Z,32.53
2023-02-04T10:20:24.950Z,30.38
2023-02-04T10:22:54.193Z,28.77
2023-02-04T10:25:23.387Z,38.40
2023-02-04T10:27:55.322Z,40.08
2023-02-04T10:30:23.119Z,27.35
2023-02-04T10:32:50.146Z,48.10
2023-02-04T10:35:18.354Z,46.95
2023-02-04T10:37:44.884Z,48.20
2023-02-04T10:40:25.881Z,42.83
2023-02-04T10:42:53.092Z,36.33
2023-02-04T10:45:27.618Z,29.60
2023-02-04T10:47:55.729Z,34.00
2023-02-04T10:50:24.600Z,22.90
2023-02-04T10:53:16.416Z,27.10
2023-02-04T10:55:47.333Z,28.48
2023-02-04T10:58:23.582Z,26.98
2023-02-04T11:00:49.976Z,40.53
2023-02-04T11:03:22.806Z,25.42
2023-02-04T11:05:50.019Z,24.70
2023-02-04T11:08:28.912Z,20.17
2023-02-04T11:10:58.940Z,29.25
2023-02-04T11:13:38.684Z,156.13
2023-02-04T11:16:18.962Z,62.88
2023-02-04T11:18:53.727Z,37.47
2023-02-04T11:21:29.240Z,21.20
2023-02-04T11:24:13.925Z,29.70
2023-02-04T11:26:42.163Z,25.25
2023-02-04T11:29:34.561Z,33.63
2023-02-04T11:32:04.521Z,26.83
2023-02-04T11:34:33.017Z,35.78
2023-02-04T11:37:02.337Z,29.70
2023-02-04T11:39:35.554Z,25.90
2023-02-04T11:42:02.426Z,22.45
2023-02-04T11:44:29.410Z,22.58
2023-02-04T11:46:56.872Z,32.08
2023-02-04T11:49:25.453Z,26.73
2023-02-04T11:52:03.694Z,23.75
2023-02-04T11:54:30.048Z,26.33
2023-02-04T11:56:59.790Z,28.00
2023-02-04T11:59:26.243Z,17.40
2023-02-04T12:02:03.777Z,23.42
2023-02-04T12:04:30.125Z,34.15
2023-02-04T12:07:01.852Z,24.83
2023-02-04T12:09:30.078Z,28.20
2023-02-04T12:12:01.568Z,29.60
2023-02-04T12:14:31.170Z,33.28
2023-02-04T12:16:57.577Z,30.25
2023-02-04T12:19:26.190Z,29.95
2023-02-04T12:21:54.689Z,25.13
2023-02-04T12:24:21.018Z,31.20
2023-02-04T12:26:47.465Z,30.00
2023-02-04T12:29:13.780Z,45.42
2023-02-04T12:31:40.223Z,29.58
2023-02-04T12:34:06.601Z,35.63
2023-02-04T12:36:32.912Z,28.23
2023-02-04T12:38:59.271Z,34.03
2023-02-04T12:41:26.022Z,24.48
2023-02-04T12:43:52.447Z,29.80
2023-02-04T12:46:18.874Z,26.33
2023-02-04T12:48:45.214Z,34.92
2023-02-04T12:51:11.709Z,35.90
2023-02-04T12:53:38.047Z,48.20
2023-02-04T12:56:04.808Z,40.72
2023-02-04T12:58:31.104Z,33.25
2023-02-04T13:00:57.586Z,27.88
2023-02-04T13:03:24.930Z,30.05
2023-02-04T13:05:51.261Z,26.80
2023-02-04T13:08:17.581Z,28.05
2023-02-04T13:10:43.927Z,26.35
2023-02-04T13:13:10.219Z,24.55
2023-02-04T13:15:36.519Z,24.98
2023-02-04T13:18:02.953Z,26.10
2023-02-04T13:20:29.246Z,19.85
2023-02-04T13:22:55.610Z,37.05
2023-02-04T13:25:21.949Z,32.30
2023-02-04T13:27:48.351Z,30.25
2023-02-04T13:30:15.776Z,20.52
2023-02-04T13:32:42.158Z,30.52
2023-02-04T13:35:08.457Z,32.20
2023-02-04T13:37:34.894Z,49.13
2023-02-04T13:40:01.260Z,28.83
2023-02-04T13:42:28.098Z,70.68
2023-02-04T13:44:55.157Z,62.10
2023-02-04T13:47:21.497Z,44.08
2023-02-04T13:49:47.997Z,47.15
2023-02-04T13:52:14.431Z,72.00
2023-02-04T13:54:40.720Z,70.85
2023-02-04T13:57:07.052Z,39.70
2023-02-04T13:59:33.349Z,38.72
2023-02-04T14:01:59.779Z,37.47
2023-02-04T14:04:26.971Z,35.75
2023-02-04T14:06:54.905Z,36.20
2023-02-04T14:09:21.715Z,30.88
2023-02-04T14:11:48.050Z,21.85
2023-02-04T14:14:14.636Z,24.55
2023-02-04T14:16:41.064Z,27.20
2023-02-04T14:19:07.536Z,32.13
2023-02-04T14:21:33.839Z,33.25
2023-02-04T14:24:01.306Z,24.15
2023-02-04T14:26:27.629Z,28.92
2023-02-04T14:28:53.982Z,33.67
2023-02-04T14:31:20.382Z,28.08
2023-02-04T14:33:49.156Z,25.30
2023-02-04T14:36:16.432Z,26.70
2023-02-04T14:38:42.873Z,35.50
2023-02-04T14:41:09.174Z,23.73
2023-02-04T14:43:37.120Z,26.63
2023-02-04T14:46:05.522Z,23.75
2023-02-04T14:48:32.107Z,24.20
2023-02-04T14:50:58.581Z,31.73
2023-02-04T14:53:24.910Z,28.75
2023-02-04T14:55:51.249Z,30.38
2023-02-04T14:58:18.283Z,18.55
2023-02-04T15:00:44.584Z,28.27
2023-02-04T15:03:10.892Z,29.98
2023-02-04T15:05:37.192Z,24.70
2023-02-04T15:08:04.598Z,24.58
2023-02-04T15:10:31.290Z,24.90
2023-02-04T15:12:58.155Z,35.13
2023-02-04T15:15:24.457Z,29.48
2023-02-04T15:17:50.783Z,33.28
2023-02-04T15:20:17.455Z,29.98
2023-02-04T15:22:43.819Z,20.05
2023-02-04T15:25:14.605Z,19.88
2023-02-04T15:27:41.094Z,28.02
2023-02-04T15:30:07.812Z,36.90
2023-02-04T15:32:34.204Z,25.48
2023-02-04T15:35:00.529Z,25.55
2023-02-04T15:37:26.912Z,24.00
2023-02-04T15:39:53.311Z,30.10
2023-02-04T15:42:19.714Z,25.42
2023-02-04T15:44:46.025Z,21.58
2023-02-04T15:47:12.342Z,23.90
2023-02-04T15:49:38.699Z,15.88
2023-02-04T15:52:08.968Z,27.05
2023-02-04T15:54:40.122Z,28.52
2023-02-04T15:57:06.451Z,27.60
2023-02-04T15:59:32.757Z,26.40
2023-02-04T16:01:59.048Z,22.00
2023-02-04T16:04:25.389Z,23.27
2023-02-04T16:06:58.319Z,25.30
2023-02-04T16:09:25.581Z,19.40
2023-02-04T16:11:51.885Z,19.20
2023-02-04T16:14:18.181Z,24.08
2023-02-04T16:16:44.496Z,26.08
2023-02-04T16:19:10.786Z,25.45
2023-02-04T16:21:37.142Z,25.55
2023-02-04T16:24:03.658Z,36.90
2023-02-04T16:26:31.399Z,51.08
2023-02-04T16:28:58.018Z,40.05
2023-02-04T16:31:24.544Z,30.30
2023-02-04T16:33:50.906Z,21.98
2023-02-04T16:36:18.545Z,17.67
2023-02-04T16:38:45.148Z,21.92
2023-02-04T16:41:14.061Z,23.80
2023-02-04T16:43:40.403Z,23.05
2023-02-04T16:46:06.800Z,24.13
2023-02-04T16:48:33.238Z,22.05
2023-02-04T16:50:59.562Z,15.85
2023-02-04T16:53:26.000Z,23.30
2023-02-04T16:55:52.325Z,21.40
2023-02-04T16:58:19.586Z,36.70
2023-02-04T17:00:46.008Z,35.83
2023-02-04T17:03:12.540Z,26.48
2023-02-04T17:05:39.926Z,32.72
2023-02-04T17:08:06.710Z,31.77
2023-02-04T17:10:51.938Z,37.55
2023-02-04T17:13:18.518Z,29.00
2023-02-04T17:15:44.905Z,35.00
2023-02-04T17:18:11.594Z,27.48
2023-02-04T17:20:37.964Z,31.23
2023-02-04T17:23:04.261Z,22.15
2023-02-04T17:25:30.965Z,22.88
2023-02-04T17:27:57.465Z,26.83
2023-02-04T17:30:23.898Z,24.50
2023-02-04T17:32:50.314Z,23.10
2023-02-04T17:35:17.258Z,27.67
2023-02-04T17:37:43.849Z,35.90
2023-02-04T17:40:14.058Z,24.77
2023-02-04T17:42:40.960Z,43.88
2023-02-04T17:45:10.339Z,36.15
2023-02-04T17:47:39.686Z,68.55
2023-02-04T17:50:10.240Z,58.88
2023-02-04T17:52:37.810Z,46.55
2023-02-04T17:55:27.522Z,48.35
2023-02-04T17:57:55.105Z,52.70
2023-02-04T18:00:23.410Z,43.10
2023-02-04T18:02:51.778Z,34.65
2023-02-04T18:05:21.611Z,32.13
2023-02-04T18:08:01.383Z,36.15
2023-02-04T18:10:36.371Z,37.70
2023-02-04T18:13:13.001Z,33.53
2023-02-04T18:15:39.544Z,58.25
2023-02-04T18:18:27.275Z,75.32
2023-02-04T18:20:59.419Z,41.97
2023-02-04T18:23:28.356Z,50.53
2023-02-04T18:25:55.045Z,35.90
2023-02-04T18:28:22.038Z,31.30
2023-02-04T18:30:53.051Z,28.48
2023-02-04T18:33:23.225Z,29.25
2023-02-04T18:35:51.564Z,25.98
2023-02-04T18:38:23.445Z,20.85
2023-02-04T18:40:52.184Z,23.23
2023-02-04T18:43:24.836Z,27.83
2023-02-04T18:45:51.741Z,20.73
2023-02-04T18:48:17.998Z,31.77
2023-02-04T18:50:46.129Z,24.33
2023-02-04T18:53:12.418Z,30.75
2023-02-04T18:55:41.592Z,24.33
2023-02-04T18:58:17.252Z,66.57
2023-02-04T19:00:48.972Z,31.00
2023-02-04T19:03:35.227Z,23.55
2023-02-04T19:06:03.275Z,26.17
2023-02-04T19:08:41.711Z,39.47
2023-02-04T19:11:37.755Z,33.78
2023-02-04T19:14:32.831Z,37.05
2023-02-04T19:17:28.480Z,45.05
2023-02-04T19:19:59.406Z,27.10
2023-02-04T19:22:49.983Z,73.72
2023-02-04T19:25:22.198Z,55.80
2023-02-04T19:27:53.895Z,34.10
2023-02-04T19:30:26.310Z,25.75
2023-02-04T19:32:55.809Z,27.33
2023-02-04T19:35:24.460Z,30.17
2023-02-04T19:38:00.364Z,66.65
2023-02-04T19:40:33.576Z,45.95
2023-02-04T19:43:22.161Z,42.05
2023-02-04T19:45:50.813Z,43.65
2023-02-04T19:48:35.390Z,41.17
2023-02-04T19:51:23.672Z,32.33
2023-02-04T19:53:53.845Z,45.33
2023-02-04T19:56:32.196Z,36.58
2023-02-04T19:59:23.281Z,32.83
2023-02-04T20:01:59.462Z,23.88
2023-02-04T20:04:34.413Z,33.33
2023-02-04T20:07:00.799Z,22.58
2023-02-04T20:09:30.651Z,32.10
2023-02-04T20:12:05.721Z,22.23
2023-02-04T20:14:41.610Z,20.35
2023-02-04T20:17:38.938Z,23.50
2023-02-04T20:20:29.266Z,24.77
2023-02-04T20:23:00.895Z,19.92
2023-02-04T20:25:36.965Z,16.85
2023-02-04T20:28:15.683Z,27.08
2023-02-04T20:30:42.247Z,18.33
2023-02-04T20:33:23.830Z,21.05
2023-02-04T20:35:50.101Z,20.55
2023-02-04T20:38:17.494Z,21.83
2023-02-04T20:40:47.304Z,29.42
2023-02-04T20:43:20.053Z,20.83
2023-02-04T20:45:58.977Z,25.75
2023-02-04T20:48:31.226Z,15.98
2023-02-04T20:51:00.870Z,26.73
2023-02-04T20:53:49.264Z,32.30
2023-02-04T20:56:40.718Z,34.97
2023-02-04T20:59:15.958Z,25.60
2023-02-04T21:01:44.179Z,22.38
2023-02-04T21:04:19.472Z,34.03
2023-02-04T21:06:46.129Z,29.58
2023-02-04T21:09:25.414Z,28.33
2023-02-04T21:11:54.013Z,25.13
2023-02-04T21:14:21.427Z,29.60
2023-02-04T21:16:48.209Z,23.40
2023-02-04T21:19:14.955Z,23.42
2023-02-04T21:21:41.652Z,23.02
2023-02-04T21:24:08.623Z,25.80
2023-02-04T21:26:34.958Z,33.08
2023-02-04T21:29:01.365Z,19.05
2023-02-04T21:31:27.773Z,29.85
2023-02-04T21:33:54.214Z,17.75
2023-02-04T21:36:20.857Z,20.17
2023-02-04T21:38:47.235Z,26.35
2023-02-04T21:41:13.788Z,19.90
2023-02-04T21:43:40.117Z,26.25
2023-02-04T21:46:06.444Z,21.63
2023-02-04T21:48:32.850Z,25.85
2023-02-04T21:50:59.263Z,18.10
2023-02-04T21:53:25.705Z,22.30
2023-02-04T21:55:52.013Z,18.58
2023-02-04T21:58:18.349Z,20.80
2023-02-04T22:00:44.689Z,19.13
2023-02-04T22:03:17.007Z,21.92
2023-02-04T22:05:44.569Z,27.63
2023-02-04T22:08:11.847Z,33.05
2023-02-04T22:10:38.511Z,26.75
2023-02-04T22:13:04.841Z,37.95
2023-02-04T22:15:31.385Z,42.42
2023-02-04T22:17:57.888Z,49.10
2023-02-04T22:20:25.350Z,25.40
2023-02-04T22:22:52.612Z,32.35
2023-02-04T22:25:20.513Z,23.80
2023-02-04T22:27:47.087Z,55.85
2023-02-04T22:30:15.810Z,60.38
2023-02-04T22:32:42.298Z,46.88
2023-02-04T22:35:10.451Z,68.40
2023-02-04T22:37:38.338Z,63.38
2023-02-04T22:40:05.763Z,95.38
2023-02-04T22:42:32.096Z,65.57
2023-02-04T22:44:58.472Z,86.10
2023-02-04T22:47:25.251Z,65.32
2023-02-04T22:49:51.572Z,40.25
2023-02-04T22:52:18.312Z,68.70
2023-02-04T22:54:44.672Z,83.20
2023-02-04T22:57:11.057Z,58.22
2023-02-04T22:59:37.457Z,41.53
2023-02-04T23:02:03.962Z,41.50
2023-02-04T23:04:30.297Z,218.70
2023-02-04T23:06:56.716Z,214.48
2023-02-04T23:09:23.222Z,115.72
2023-02-04T23:11:49.660Z,71.20
2023-02-04T23:14:16.017Z,54.85
2023-02-04T23:16:42.407Z,70.55
2023-02-04T23:19:08.787Z,88.90
2023-02-04T23:21:35.379Z,73.35
2023-02-04T23:24:01.867Z,35.75
2023-02-04T23:26:28.235Z,27.70
2023-02-04T23:28:54.646Z,31.48
2023-02-04T23:31:20.989Z,35.58
2023-02-04T23:33:47.296Z,33.72
2023-02-04T23:36:13.623Z,41.55
2023-02-04T23:38:39.913Z,37.50
2023-02-04T23:41:06.257Z,46.95
2023-02-04T23:43:32.613Z,51.63
2023-02-04T23:45:59.954Z,51.60
2023-02-04T23:48:26.334Z,43.60
2023-02-04T23:50:52.790Z,35.38
2023-02-04T23:53:19.339Z,108.00
2023-02-04T23:55:46.107Z,85.85
2023-02-04T23:58:12.562Z,36.45
